Time;durP1;ratioP1;P1;durP2;ratioP2;P2;SDS_P1;SDS_P2;PMS_P1;PMS_P2;Temp;Humidity;BMP_temperature;BMP_pressure;BME280_temperature;BME280_humidity;BME280_pressure;Samples;Min_cycle;Max_cycle;Signal;HPM_P1;HPM_P2
2022/04/12 00:00:59;;;;;;;9.55;4.57;;;6.10;86.60;;;;;;4913437;29;20024;-82
2022/04/12 00:03:25;;;;;;;9.45;4.53;;;6.10;86.50;;;;;;4913432;29;20048;-82
2022/04/12 00:05:52;;;;;;;11.90;4.80;;;6.10;86.20;;;;;;4912963;29;20056;-80
2022/04/12 00:08:18;;;;;;;11.45;4.72;;;6.10;86.40;;;;;;4920796;29;20044;-80
2022/04/12 00:10:45;;;;;;;14.63;5.13;;;6.10;86.00;;;;;;4916315;29;20104;-81
2022/04/12 00:13:12;;;;;;;10.23;4.72;;;6.10;85.70;;;;;;4917101;29;20047;-82
2022/04/12 00:15:38;;;;;;;8.98;4.65;;;6.00;85.50;;;;;;4911381;29;20086;-81
2022/04/12 00:20:49;;;;;;;11.07;5.60;;;6.10;86.80;;;;;;4914404;29;20024;-80
2022/04/12 00:23:15;;;;;;;11.85;4.82;;;6.00;87.10;;;;;;4902443;29;20064;-82
2022/04/12 00:25:45;;;;;;;9.57;4.47;;;6.00;87.60;;;;;;4914713;29;20048;-80
2022/04/12 00:28:14;;;;;;;16.30;5.47;;;6.00;87.30;;;;;;4918148;29;20052;-80
2022/04/12 00:30:40;;;;;;;11.80;5.30;;;6.00;87.20;;;;;;4912465;29;20012;-81
2022/04/12 00:33:06;;;;;;;9.20;5.25;;;6.00;87.50;;;;;;4914023;29;20068;-80
2022/04/12 00:35:31;;;;;;;12.05;5.18;;;6.00;87.50;;;;;;4915525;29;20016;-81
2022/04/12 00:37:57;;;;;;;12.32;5.15;;;5.90;87.90;;;;;;4921869;29;20041;-81
2022/04/12 00:40:24;;;;;;;11.98;5.35;;;5.90;87.70;;;;;;4919347;29;20071;-80
2022/04/12 00:42:51;;;;;;;13.05;5.45;;;5.90;87.90;;;;;;4915013;29;20092;-82
2022/04/12 00:45:17;;;;;;;11.13;5.30;;;5.90;88.00;;;;;;4911798;29;20021;-79
2022/04/12 00:47:44;;;;;;;11.60;5.18;;;5.90;88.40;;;;;;4918687;29;20036;-82
2022/04/12 00:50:11;;;;;;;10.50;5.10;;;5.90;88.40;;;;;;4917073;29;20021;-81
2022/04/12 00:52:48;;;;;;;9.75;5.13;;;5.90;88.30;;;;;;4900350;29;20036;-82
2022/04/12 00:55:14;;;;;;;10.85;5.57;;;5.90;87.10;;;;;;4907171;29;20028;-80
2022/04/12 00:57:40;;;;;;;10.15;5.50;;;5.80;87.10;;;;;;4917340;29;20028;-83
2022/04/12 01:00:08;;;;;;;13.63;5.22;;;5.80;87.00;;;;;;4914687;29;20032;-82
2022/04/12 01:02:34;;;;;;;10.95;4.90;;;5.80;86.80;;;;;;4906083;29;20032;-83
2022/04/12 01:05:02;;;;;;;9.30;4.78;;;5.80;86.70;;;;;;4909629;29;20107;-83
2022/04/12 01:07:28;;;;;;;14.07;5.10;;;5.80;86.70;;;;;;4915927;29;20465;-84
2022/04/12 01:09:55;;;;;;;12.48;5.15;;;5.70;87.10;;;;;;4905832;29;20031;-82
2022/04/12 01:12:22;;;;;;;11.13;5.30;;;5.70;87.70;;;;;;4903103;29;20045;-81
2022/04/12 01:14:48;;;;;;;9.50;5.63;;;5.70;87.70;;;;;;4908367;29;20068;-82
2022/04/12 01:17:15;;;;;;;9.93;5.10;;;5.60;88.10;;;;;;4916499;29;20481;-83
2022/04/12 01:19:41;;;;;;;12.52;5.30;;;5.60;88.80;;;;;;4916644;29;20032;-82
2022/04/12 01:22:21;;;;;;;13.93;5.10;;;5.60;89.70;;;;;;4911484;29;20005;-81
2022/04/12 01:24:47;;;;;;;13.80;5.68;;;5.50;90.00;;;;;;4909840;29;20053;-82
2022/04/12 01:27:12;;;;;;;9.68;5.07;;;5.50;90.20;;;;;;4901643;29;20022;-82
2022/04/12 01:29:38;;;;;;;14.20;5.60;;;5.40;90.40;;;;;;4905052;29;20076;-82
2022/04/12 01:32:08;;;;;;;11.90;5.72;;;5.40;90.90;;;;;;4913611;29;20038;-79
2022/04/12 01:34:37;;;;;;;10.65;5.32;;;5.40;91.10;;;;;;4911209;29;20043;-79
2022/04/12 01:37:03;;;;;;;14.20;5.78;;;5.40;91.30;;;;;;4905050;29;20089;-82
2022/04/12 01:39:30;;;;;;;13.20;5.70;;;5.30;91.50;;;;;;4906927;29;20048;-80
2022/04/12 01:41:57;;;;;;;10.65;5.03;;;5.30;91.40;;;;;;4899614;29;20028;-82
2022/04/12 01:44:22;;;;;;;13.05;5.63;;;5.30;91.80;;;;;;4912480;29;20061;-83
2022/04/12 01:46:48;;;;;;;11.82;5.97;;;5.20;92.00;;;;;;4916632;29;20052;-79
2022/04/12 01:49:14;;;;;;;11.65;5.80;;;5.20;92.20;;;;;;4919133;29;20025;-81
2022/04/12 01:51:40;;;;;;;9.27;5.25;;;5.20;92.60;;;;;;4915845;29;20012;-79
2022/04/12 01:54:05;;;;;;;11.93;5.80;;;5.10;92.80;;;;;;4907746;29;20029;-80
2022/04/12 01:56:32;;;;;;;12.32;6.32;;;5.20;92.70;;;;;;4908116;29;20040;-82
2022/04/12 01:59:04;;;;;;;11.90;6.32;;;5.20;92.90;;;;;;4889501;29;20221;-83
2022/04/12 02:01:30;;;;;;;12.80;5.13;;;5.10;93.10;;;;;;4903507;29;20033;-83
2022/04/12 02:03:56;;;;;;;14.93;5.60;;;5.10;93.00;;;;;;4900608;29;20024;-82
2022/04/12 02:06:22;;;;;;;11.73;5.72;;;5.10;93.10;;;;;;4888219;29;20445;-82
2022/04/12 02:08:48;;;;;;;11.90;6.18;;;5.10;93.20;;;;;;4895748;29;20028;-81
2022/04/12 02:11:14;;;;;;;18.65;6.30;;;5.10;93.30;;;;;;4906209;29;20070;-82
2022/04/12 02:13:39;;;;;;;15.23;6.03;;;5.10;93.60;;;;;;4909838;29;20009;-80
2022/04/12 02:16:05;;;;;;;14.45;6.15;;;5.10;93.90;;;;;;4910479;29;20084;-80
2022/04/12 02:18:31;;;;;;;12.00;5.63;;;5.00;94.40;;;;;;4919227;29;20009;-80
2022/04/12 02:20:57;;;;;;;13.07;6.20;;;5.00;94.80;;;;;;4891739;29;20040;-81
2022/04/12 02:23:23;;;;;;;9.30;5.35;;;5.00;95.20;;;;;;4910850;29;20061;-84
2022/04/12 02:25:49;;;;;;;20.67;7.13;;;5.00;95.70;;;;;;4903776;29;20029;-81
2022/04/12 02:28:15;;;;;;;12.93;6.45;;;4.90;96.20;;;;;;4907149;29;20045;-83
2022/04/12 02:30:41;;;;;;;12.82;6.28;;;4.90;96.50;;;;;;4901783;29;20029;-81
2022/04/12 02:33:07;;;;;;;14.10;6.60;;;4.90;96.90;;;;;;4910640;29;20039;-83
2022/04/12 02:35:32;;;;;;;15.23;6.25;;;4.90;97.30;;;;;;4909297;29;20033;-82
2022/04/12 02:37:58;;;;;;;14.13;6.53;;;4.90;97.30;;;;;;4920352;29;20041;-80
2022/04/12 02:40:24;;;;;;;11.85;5.82;;;4.80;97.60;;;;;;4914410;29;20025;-81
2022/04/12 02:42:50;;;;;;;12.18;5.93;;;4.80;97.50;;;;;;4911046;29;20039;-80
2022/04/12 02:45:16;;;;;;;12.80;6.60;;;4.80;97.60;;;;;;4910996;29;20029;-83
2022/04/12 02:47:42;;;;;;;13.43;6.60;;;4.80;98.50;;;;;;4910093;29;20077;-81
2022/04/12 02:50:08;;;;;;;14.85;7.43;;;4.80;99.00;;;;;;4911353;29;20036;-82
2022/04/12 02:52:33;;;;;;;16.95;6.93;;;4.80;99.20;;;;;;4911134;29;20017;-80
2022/04/12 02:54:59;;;;;;;15.15;6.80;;;4.70;99.40;;;;;;4910719;29;20024;-81
2022/04/12 02:57:25;;;;;;;19.52;7.13;;;4.80;99.80;;;;;;4921906;29;20021;-82
2022/04/12 02:59:51;;;;;;;14.43;7.20;;;4.80;99.70;;;;;;4914393;29;20045;-83
2022/04/12 03:02:17;;;;;;;15.25;7.15;;;4.70;99.60;;;;;;4910070;29;20032;-82
2022/04/12 03:04:42;;;;;;;14.48;7.47;;;4.70;99.80;;;;;;4912076;29;20027;-81
2022/04/12 03:07:09;;;;;;;12.85;7.03;;;4.60;99.90;;;;;;4914031;29;20025;-80
2022/04/12 03:09:35;;;;;;;13.68;6.90;;;4.50;99.90;;;;;;4910545;29;20044;-81
2022/04/12 03:12:01;;;;;;;16.70;7.78;;;4.50;99.90;;;;;;4912404;29;20058;-80
2022/04/12 03:14:26;;;;;;;15.75;7.35;;;4.50;99.90;;;;;;4911630;29;20017;-81
2022/04/12 03:16:52;;;;;;;15.73;6.65;;;4.40;99.90;;;;;;4921729;29;20037;-80
2022/04/12 03:19:18;;;;;;;17.60;7.25;;;4.40;99.90;;;;;;4915886;29;20032;-80
2022/04/12 03:21:44;;;;;;;17.65;7.10;;;4.30;99.90;;;;;;4913935;29;20080;-80
2022/04/12 03:24:10;;;;;;;16.17;8.05;;;4.30;99.90;;;;;;4910636;29;20100;-80
2022/04/12 03:26:36;;;;;;;16.83;7.00;;;4.30;99.90;;;;;;4920337;29;20035;-79
2022/04/12 03:29:02;;;;;;;16.20;6.90;;;4.30;99.90;;;;;;4910349;29;20029;-79
2022/04/12 03:31:28;;;;;;;17.30;6.97;;;4.30;99.90;;;;;;4910430;29;20028;-83
2022/04/12 03:33:54;;;;;;;14.93;7.30;;;4.30;99.90;;;;;;4900772;29;20029;-80
2022/04/12 03:36:19;;;;;;;15.23;7.55;;;4.30;99.90;;;;;;4905655;29;20063;-83
2022/04/12 03:38:48;;;;;;;17.30;8.15;;;4.30;99.90;;;;;;4903265;29;20040;-82
2022/04/12 03:41:21;;;;;;;13.45;7.03;;;4.30;99.90;;;;;;4906582;29;20084;-80
2022/04/12 03:43:47;;;;;;;21.08;6.72;;;4.30;99.90;;;;;;4913890;29;20027;-80
2022/04/12 03:46:13;;;;;;;20.92;7.05;;;4.40;99.90;;;;;;4903132;29;20113;-82
2022/04/12 03:48:39;;;;;;;13.80;7.10;;;4.30;99.90;;;;;;4912806;29;20029;-81
2022/04/12 03:51:05;;;;;;;19.90;7.57;;;4.30;99.90;;;;;;4907091;29;20021;-82
2022/04/12 03:53:31;;;;;;;23.42;7.40;;;4.30;99.90;;;;;;4909512;29;20048;-83
2022/04/12 03:55:57;;;;;;;16.88;6.47;;;4.30;99.90;;;;;;4899748;29;20033;-80
2022/04/12 03:58:22;;;;;;;15.93;6.75;;;4.30;99.90;;;;;;4899577;29;20536;-84
2022/04/12 04:00:49;;;;;;;16.48;7.20;;;4.30;99.90;;;;;;4905287;29;20569;-81
2022/04/12 04:03:15;;;;;;;12.98;7.25;;;4.30;99.90;;;;;;4902766;29;20041;-82
2022/04/12 04:05:41;;;;;;;17.48;8.02;;;4.30;99.90;;;;;;4911215;29;20081;-81
2022/04/12 04:08:07;;;;;;;15.13;7.53;;;4.30;99.90;;;;;;4919807;29;20029;-81
2022/04/12 04:10:33;;;;;;;17.48;7.00;;;4.30;99.90;;;;;;4904649;29;20028;-82
2022/04/12 04:12:59;;;;;;;13.98;7.75;;;4.30;99.90;;;;;;4883017;29;20112;-83
2022/04/12 04:15:24;;;;;;;17.25;7.32;;;4.30;99.90;;;;;;4908084;29;20093;-80
2022/04/12 04:17:50;;;;;;;21.63;7.57;;;4.30;99.90;;;;;;4900367;29;20073;-83
2022/04/12 04:20:18;;;;;;;16.67;7.68;;;4.30;99.90;;;;;;4912931;29;20024;-82
2022/04/12 04:22:44;;;;;;;18.65;8.07;;;4.30;99.90;;;;;;4912046;29;20049;-82
2022/04/12 04:25:12;;;;;;;16.58;7.60;;;4.30;99.90;;;;;;4908533;29;20043;-82
2022/04/12 04:27:39;;;;;;;20.90;8.23;;;4.40;99.90;;;;;;4909419;29;20049;-81
2022/04/12 04:30:08;;;;;;;15.52;7.13;;;4.40;99.90;;;;;;4908572;29;20029;-81
2022/04/12 04:32:34;;;;;;;16.65;7.35;;;4.40;99.90;;;;;;4907625;29;20045;-79
2022/04/12 04:35:01;;;;;;;18.50;7.35;;;4.40;99.90;;;;;;4908978;29;20025;-82
2022/04/12 04:37:27;;;;;;;16.48;7.47;;;4.40;99.90;;;;;;4908977;29;20078;-82
2022/04/12 04:39:53;;;;;;;20.83;7.57;;;4.50;99.90;;;;;;4908032;29;20062;-81
2022/04/12 04:42:20;;;;;;;17.25;7.30;;;4.50;99.90;;;;;;4908577;29;20017;-81
2022/04/12 04:44:49;;;;;;;20.08;7.85;;;4.50;99.90;;;;;;4912477;29;20064;-79
2022/04/12 04:47:15;;;;;;;18.63;8.10;;;4.60;99.90;;;;;;4927520;29;20029;-81
2022/04/12 04:49:41;;;;;;;19.45;8.15;;;4.60;99.90;;;;;;4917188;29;20084;-80
2022/04/12 04:52:07;;;;;;;17.27;8.15;;;4.70;99.90;;;;;;4917466;29;20411;-80
2022/04/12 04:54:33;;;;;;;17.27;7.75;;;4.70;99.90;;;;;;4905570;29;20025;-81
2022/04/12 04:56:59;;;;;;;14.98;7.47;;;4.80;99.90;;;;;;4905343;29;20024;-80
2022/04/12 04:59:24;;;;;;;16.13;7.47;;;4.80;99.90;;;;;;4913580;29;20021;-80
2022/04/12 05:01:50;;;;;;;17.90;7.78;;;4.90;99.90;;;;;;4920864;29;20025;-81
2022/04/12 05:04:16;;;;;;;15.00;7.20;;;4.90;99.90;;;;;;4914998;29;20056;-81
2022/04/12 05:06:42;;;;;;;16.27;7.53;;;5.00;99.90;;;;;;4916379;29;20057;-81
2022/04/12 05:09:08;;;;;;;23.45;8.23;;;5.00;99.90;;;;;;4924315;29;20048;-83
2022/04/12 05:11:33;;;;;;;16.02;7.72;;;5.00;99.90;;;;;;4923469;29;20036;-81
2022/04/12 05:13:59;;;;;;;21.38;8.38;;;5.10;99.90;;;;;;4912551;29;20055;-82
2022/04/12 05:16:25;;;;;;;25.35;8.40;;;5.20;99.90;;;;;;4914020;29;20028;-81
2022/04/12 05:18:54;;;;;;;19.58;8.85;;;5.20;99.90;;;;;;4904777;29;20028;-82
2022/04/12 05:21:19;;;;;;;19.35;8.60;;;5.30;99.90;;;;;;4901707;29;20025;-83
2022/04/12 05:23:45;;;;;;;21.63;8.13;;;5.40;99.90;;;;;;4901171;29;20080;-83
2022/04/12 05:29:07;;;;;;;15.88;8.32;;;5.50;99.20;;;;;;4882928;29;20074;-82
2022/04/12 05:31:33;;;;;;;18.98;7.88;;;5.70;98.70;;;;;;4902794;29;20052;-83
2022/04/12 05:33:59;;;;;;;18.52;8.80;;;5.70;98.60;;;;;;4884177;29;20037;-83
2022/04/12 05:36:25;;;;;;;19.98;8.00;;;5.80;98.40;;;;;;4880626;29;20155;-82
2022/04/12 05:38:50;;;;;;;20.55;9.15;;;5.90;98.20;;;;;;4874151;29;20038;-81
2022/04/12 05:41:16;;;;;;;21.33;8.75;;;6.00;98.10;;;;;;4901554;29;20021;-83
2022/04/12 05:43:42;;;;;;;15.55;7.70;;;6.10;98.10;;;;;;4882827;29;20115;-82
2022/04/12 05:46:08;;;;;;;19.02;9.15;;;6.20;97.80;;;;;;4882460;29;20033;-81
2022/04/12 05:48:34;;;;;;;19.77;9.73;;;6.30;97.80;;;;;;4876725;29;20022;-79
2022/04/12 05:50:59;;;;;;;29.98;13.80;;;6.30;97.40;;;;;;4880288;29;20045;-80
2022/04/12 05:53:26;;;;;;;17.85;8.43;;;6.40;97.20;;;;;;4880755;29;20383;-79
2022/04/12 05:55:51;;;;;;;16.40;8.45;;;6.50;96.90;;;;;;4886564;29;20022;-80
2022/04/12 05:58:17;;;;;;;20.13;8.95;;;6.60;96.80;;;;;;4890673;29;20036;-79
2022/04/12 06:00:43;;;;;;;19.52;8.80;;;6.70;96.60;;;;;;4895154;29;20028;-80
2022/04/12 06:03:09;;;;;;;21.23;9.27;;;6.90;96.30;;;;;;4907148;29;20074;-84
2022/04/12 06:05:35;;;;;;;18.05;9.50;;;6.80;96.00;;;;;;4883796;29;20053;-82
2022/04/12 06:08:03;;;;;;;19.33;8.52;;;6.90;96.10;;;;;;4879506;29;20034;-82
2022/04/12 06:10:29;;;;;;;18.77;8.82;;;7.00;95.80;;;;;;4883114;29;20025;-82
2022/04/12 06:12:55;;;;;;;27.48;9.10;;;7.10;95.60;;;;;;4881738;29;20089;-81
2022/04/12 06:15:21;;;;;;;20.05;9.05;;;7.30;94.80;;;;;;4882258;29;20020;-83
2022/04/12 06:17:49;;;;;;;24.90;8.80;;;7.30;94.50;;;;;;4886058;29;20018;-83
2022/04/12 06:20:16;;;;;;;20.67;8.77;;;7.40;94.60;;;;;;4884259;29;20018;-83
2022/04/12 06:22:42;;;;;;;18.67;8.57;;;7.60;94.20;;;;;;4884479;29;20033;-83
2022/04/12 06:25:10;;;;;;;23.95;9.25;;;7.70;94.10;;;;;;4882569;29;20009;-84
2022/04/12 06:27:46;;;;;;;41.90;18.42;;;7.80;93.60;;;;;;4883487;29;20022;-82
2022/04/12 06:30:16;;;;;;;20.02;9.75;;;7.90;93.30;;;;;;4879161;29;20053;-79
2022/04/12 06:32:43;;;;;;;17.88;8.65;;;8.00;93.20;;;;;;4872119;29;20128;-78
2022/04/12 06:35:10;;;;;;;20.40;9.40;;;8.20;92.90;;;;;;4873916;29;20159;-78
2022/04/12 06:37:39;;;;;;;21.27;8.35;;;8.30;92.40;;;;;;4879490;29;20042;-80
2022/04/12 06:40:06;;;;;;;22.85;8.52;;;8.50;91.90;;;;;;4878226;29;20030;-78
2022/04/12 06:42:33;;;;;;;14.70;8.02;;;8.60;91.80;;;;;;4881165;29;20021;-80
2022/04/12 06:44:59;;;;;;;15.57;8.25;;;8.60;91.10;;;;;;4880334;29;20030;-79
2022/04/12 06:47:24;;;;;;;22.85;8.68;;;8.60;90.70;;;;;;4880780;29;20029;-79
2022/04/12 06:49:51;;;;;;;18.58;8.25;;;8.60;90.90;;;;;;4881998;29;20034;-80
2022/04/12 06:52:20;;;;;;;20.58;9.65;;;8.70;91.00;;;;;;4882537;29;20042;-79
2022/04/12 06:54:46;;;;;;;18.92;9.45;;;8.70;91.30;;;;;;4874916;29;20037;-80
2022/04/12 06:57:12;;;;;;;21.42;9.52;;;8.80;91.10;;;;;;4883313;29;20031;-80
2022/04/12 06:59:38;;;;;;;22.38;9.85;;;8.80;91.20;;;;;;4881364;29;20018;-78
2022/04/12 07:02:04;;;;;;;24.20;9.27;;;8.70;91.40;;;;;;4882029;29;20040;-80
2022/04/12 07:04:31;;;;;;;26.17;9.25;;;8.80;91.10;;;;;;4896704;29;20057;-79
2022/04/12 07:06:59;;;;;;;18.70;8.48;;;8.90;91.50;;;;;;4897686;29;20066;-79
2022/04/12 07:09:29;;;;;;;22.98;9.52;;;9.00;91.50;;;;;;4883517;29;20021;-79
2022/04/12 07:11:57;;;;;;;23.20;9.75;;;9.10;91.60;;;;;;4897445;29;20045;-80
2022/04/12 07:14:23;;;;;;;21.60;10.00;;;9.20;91.60;;;;;;4877472;29;20019;-78
2022/04/12 07:16:49;;;;;;;26.67;9.30;;;9.20;91.40;;;;;;4881312;29;20053;-80
2022/04/12 07:19:15;;;;;;;22.40;9.95;;;9.20;91.10;;;;;;4891346;29;20482;-80
2022/04/12 07:21:41;;;;;;;24.13;9.43;;;9.30;91.10;;;;;;4877884;29;20043;-79
2022/04/12 07:24:07;;;;;;;24.45;9.93;;;9.40;91.20;;;;;;4891102;29;20076;-78
2022/04/12 07:26:34;;;;;;;22.20;8.93;;;9.50;91.00;;;;;;4881850;29;20065;-79
2022/04/12 07:29:00;;;;;;;26.13;10.25;;;9.50;91.00;;;;;;4882913;29;20065;-80
2022/04/12 07:31:27;;;;;;;25.63;9.80;;;9.50;91.10;;;;;;4874033;29;20038;-79
2022/04/12 07:33:53;;;;;;;23.33;8.98;;;9.50;91.30;;;;;;4872090;29;20048;-79
2022/04/12 07:36:19;;;;;;;21.85;9.13;;;9.60;91.30;;;;;;4885736;29;20040;-81
2022/04/12 07:38:45;;;;;;;21.52;10.23;;;9.60;91.30;;;;;;4875135;29;20033;-80
2022/04/12 07:41:11;;;;;;;24.38;10.23;;;9.60;91.50;;;;;;4875258;29;20110;-79
2022/04/12 07:43:37;;;;;;;22.38;10.35;;;9.70;91.30;;;;;;4886919;29;20369;-79
2022/04/12 07:46:04;;;;;;;18.13;9.98;;;9.80;91.50;;;;;;4874120;29;20051;-81
2022/04/12 07:48:30;;;;;;;21.55;9.27;;;9.80;91.00;;;;;;4878202;29;20064;-79
2022/04/12 07:50:56;;;;;;;21.98;8.57;;;9.90;91.30;;;;;;4875278;29;20057;-80
2022/04/12 07:53:21;;;;;;;19.00;9.85;;;10.00;91.00;;;;;;4874829;29;20028;-80
2022/04/12 07:55:47;;;;;;;18.33;9.13;;;10.00;90.30;;;;;;4876516;29;20050;-80
2022/04/12 07:58:15;;;;;;;23.85;9.23;;;10.00;90.40;;;;;;4876841;29;20009;-78
2022/04/12 08:00:41;;;;;;;22.13;8.77;;;10.10;90.70;;;;;;4881678;29;20033;-79
2022/04/12 08:03:07;;;;;;;15.55;8.13;;;10.20;90.40;;;;;;4879509;29;20042;-78
2022/04/12 08:05:34;;;;;;;18.83;7.85;;;10.20;90.40;;;;;;4879605;29;20028;-79
2022/04/12 08:08:01;;;;;;;15.35;7.05;;;10.30;89.50;;;;;;4882279;29;20017;-80
2022/04/12 08:10:27;;;;;;;15.30;7.57;;;10.20;90.10;;;;;;4881009;29;20038;-79
2022/04/12 08:12:53;;;;;;;18.48;8.30;;;10.40;89.90;;;;;;4881687;29;20041;-78
2022/04/12 08:15:19;;;;;;;15.50;7.90;;;10.50;90.10;;;;;;4882031;29;20045;-78
2022/04/12 08:17:45;;;;;;;23.80;8.38;;;10.40;88.70;;;;;;4882589;29;20021;-81
2022/04/12 08:20:15;;;;;;;16.40;7.40;;;10.40;89.30;;;;;;4874444;29;20045;-81
2022/04/12 08:22:42;;;;;;;15.50;7.05;;;10.50;90.00;;;;;;4869122;29;20038;-80
2022/04/12 08:25:09;;;;;;;14.85;7.25;;;10.60;89.70;;;;;;4863310;29;20041;-80
2022/04/12 08:27:35;;;;;;;15.15;7.28;;;10.80;89.70;;;;;;4867719;29;20030;-80
2022/04/12 08:30:02;;;;;;;13.45;6.95;;;10.90;89.30;;;;;;4873772;29;20037;-79
2022/04/12 08:32:29;;;;;;;15.55;7.90;;;10.90;88.50;;;;;;4877701;29;20040;-79
2022/04/12 08:34:56;;;;;;;18.70;7.13;;;11.00;88.00;;;;;;4866120;29;20085;-80
2022/04/12 08:37:22;;;;;;;20.17;7.85;;;11.20;88.00;;;;;;4866196;29;20112;-81
2022/04/12 08:39:48;;;;;;;16.42;8.27;;;11.40;87.20;;;;;;4866533;29;20064;-80
2022/04/12 08:42:14;;;;;;;18.30;8.05;;;11.20;86.70;;;;;;4879492;29;20041;-80
2022/04/12 08:44:45;;;;;;;20.40;8.95;;;11.00;86.60;;;;;;4875833;29;20033;-79
2022/04/12 08:47:14;;;;;;;22.77;8.07;;;10.90;87.20;;;;;;4870847;29;20037;-78
2022/04/12 08:49:40;;;;;;;17.50;8.50;;;11.00;87.40;;;;;;4878216;29;20033;-79
2022/04/12 08:52:11;;;;;;;18.15;8.82;;;11.30;87.10;;;;;;4879252;29;20045;-78
2022/04/12 08:54:42;;;;;;;24.75;8.10;;;11.30;86.10;;;;;;4874158;29;20029;-80
2022/04/12 08:57:09;;;;;;;18.33;8.25;;;11.40;86.80;;;;;;4878054;29;20030;-77
2022/04/12 08:59:35;;;;;;;21.52;9.60;;;11.60;87.20;;;;;;4868495;29;20054;-80
2022/04/12 09:02:01;;;;;;;20.30;8.82;;;11.80;87.40;;;;;;4851833;29;20115;-80
2022/04/12 09:04:27;;;;;;;18.98;9.50;;;11.90;86.80;;;;;;4863799;29;20093;-80
2022/04/12 09:06:58;;;;;;;20.80;9.40;;;12.00;86.00;;;;;;4873275;29;20030;-79
2022/04/12 09:09:26;;;;;;;17.90;8.35;;;12.00;85.90;;;;;;4872502;29;20615;-81
2022/04/12 09:12:03;;;;;;;23.80;9.32;;;12.10;85.60;;;;;;4889497;29;20057;-79
2022/04/12 09:14:56;;;;;;;19.15;8.93;;;12.10;85.30;;;;;;4873721;29;20045;-79
2022/04/12 09:17:36;;;;;;;17.05;9.13;;;12.40;85.40;;;;;;4874332;29;20033;-80
2022/04/12 09:20:12;;;;;;;22.27;9.13;;;12.80;83.70;;;;;;4875284;29;20042;-81
2022/04/12 09:22:38;;;;;;;27.75;11.48;;;13.30;82.60;;;;;;4879671;29;20041;-77
2022/04/12 09:25:06;;;;;;;21.83;10.65;;;13.80;81.20;;;;;;4869681;29;20029;-82
2022/04/12 09:27:35;;;;;;;20.13;10.52;;;14.40;79.00;;;;;;4893758;29;20053;-81
2022/04/12 09:30:04;;;;;;;21.95;10.32;;;15.40;78.10;;;;;;4880460;29;20048;-82
2022/04/12 09:33:00;;;;;;;22.00;9.60;;;16.40;75.10;;;;;;4877800;29;20037;-83
2022/04/12 09:35:26;;;;;;;15.43;7.93;;;17.40;72.70;;;;;;4876440;29;20030;-83
2022/04/12 09:37:52;;;;;;;18.40;7.78;;;17.60;70.60;;;;;;4879292;29;20026;-82
2022/04/12 09:40:18;;;;;;;18.88;8.68;;;18.30;68.70;;;;;;4873460;29;20034;-83
2022/04/12 09:42:55;;;;;;;18.20;8.40;;;19.00;67.60;;;;;;4873019;29;20077;-81
2022/04/12 09:45:32;;;;;;;15.43;8.02;;;20.30;64.30;;;;;;4866891;29;20060;-82
2022/04/12 09:48:01;;;;;;;14.18;6.90;;;21.40;62.10;;;;;;4873607;29;20022;-83
2022/04/12 09:50:30;;;;;;;16.63;7.25;;;22.20;57.70;;;;;;4872839;29;20097;-83
2022/04/12 09:52:56;;;;;;;13.52;6.18;;;22.50;57.20;;;;;;4887929;29;20131;-84
2022/04/12 09:55:40;;;;;;;13.98;7.43;;;23.40;55.80;;;;;;4879687;29;20100;-84
2022/04/12 09:58:12;;;;;;;12.40;7.05;;;23.50;54.70;;;;;;4874714;29;20030;-83
2022/04/12 10:00:39;;;;;;;14.07;6.80;;;24.20;53.10;;;;;;4886918;29;20044;-82
2022/04/12 10:03:10;;;;;;;10.93;5.85;;;24.00;53.30;;;;;;4887805;29;20029;-83
2022/04/12 10:05:36;;;;;;;13.10;6.53;;;23.70;52.70;;;;;;4881995;29;20401;-83
2022/04/12 10:08:04;;;;;;;14.57;6.43;;;23.20;53.70;;;;;;4876290;29;20032;-83
2022/04/12 10:10:30;;;;;;;17.60;6.55;;;23.20;53.10;;;;;;4878330;29;20094;-83
2022/04/12 10:12:59;;;;;;;10.77;6.15;;;23.70;52.20;;;;;;4880154;29;20017;-83
2022/04/12 10:15:26;;;;;;;12.50;6.72;;;23.10;52.00;;;;;;4880220;29;20037;-82
2022/04/12 10:17:53;;;;;;;14.68;6.18;;;22.60;53.40;;;;;;4868743;29;20123;-85
2022/04/12 10:20:19;;;;;;;12.43;6.28;;;23.00;53.10;;;;;;4864284;29;20045;-84
2022/04/12 10:22:46;;;;;;;10.80;6.03;;;23.60;52.10;;;;;;4868922;29;20017;-82
2022/04/12 10:25:20;;;;;;;10.18;6.20;;;24.10;50.80;;;;;;4882128;29;20037;-84
2022/04/12 10:27:48;;;;;;;10.90;6.15;;;23.80;52.00;;;;;;4882892;29;20700;-84
2022/04/12 10:30:17;;;;;;;11.20;6.47;;;24.60;50.80;;;;;;4885846;29;20044;-83
2022/04/12 10:33:03;;;;;;;9.50;5.53;;;25.90;49.80;;;;;;4883839;29;20017;-85
2022/04/12 10:35:51;;;;;;;9.95;5.95;;;26.10;49.10;;;;;;4866480;29;20056;-85
2022/04/12 10:38:19;;;;;;;18.83;6.18;;;26.50;48.30;;;;;;4876221;29;20072;-86
2022/04/12 10:40:53;;;;;;;11.57;6.55;;;26.50;48.30;;;;;;4881086;29;20040;-85
2022/04/12 10:43:33;;;;;;;10.95;7.18;;;26.30;48.20;;;;;;4880362;29;20097;-84
2022/04/12 10:46:01;;;;;;;13.57;6.22;;;26.40;48.00;;;;;;4894597;29;20068;-84
2022/04/12 10:48:29;;;;;;;13.18;6.45;;;25.80;48.30;;;;;;4870067;29;20026;-83
2022/04/12 10:50:58;;;;;;;14.02;6.88;;;26.20;48.10;;;;;;4880223;29;20081;-83
2022/04/12 10:53:39;;;;;;;16.48;7.55;;;26.70;48.00;;;;;;4880320;29;20032;-82
2022/04/12 10:56:14;;;;;;;9.52;6.65;;;26.60;47.70;;;;;;4868702;29;20425;-84
2022/04/12 10:58:43;;;;;;;12.32;6.80;;;27.20;47.50;;;;;;4868813;29;20029;-82
2022/04/12 11:01:31;;;;;;;13.05;6.70;;;27.50;47.10;;;;;;4867302;29;20502;-84
2022/04/12 11:03:59;;;;;;;10.98;6.68;;;28.30;46.80;;;;;;4867089;29;20098;-83
2022/04/12 11:06:30;;;;;;;14.82;7.68;;;27.60;46.30;;;;;;4872965;29;20056;-83
2022/04/12 11:09:16;;;;;;;14.98;6.97;;;27.50;46.50;;;;;;4880749;29;20037;-82
2022/04/12 11:11:44;;;;;;;16.35;6.70;;;27.60;46.50;;;;;;4876945;29;20056;-84
2022/04/12 11:14:27;;;;;;;12.00;6.70;;;28.00;46.20;;;;;;4865633;29;20033;-83
2022/04/12 11:17:14;;;;;;;18.47;7.10;;;28.80;45.90;;;;;;4869647;29;20025;-84
2022/04/12 11:19:42;;;;;;;10.73;6.72;;;29.30;45.10;;;;;;4875399;29;20034;-80
2022/04/12 11:22:11;;;;;;;10.48;6.82;;;29.10;45.00;;;;;;4890185;29;20082;-84
2022/04/12 11:24:38;;;;;;;12.18;6.53;;;28.90;44.90;;;;;;4885206;29;20033;-81
2022/04/12 11:29:33;;;;;;;12.02;6.70;;;30.80;44.10;;;;;;4900855;29;20032;-84
2022/04/12 11:31:59;;;;;;;15.57;6.80;;;30.70;43.40;;;;;;4902305;29;20047;-82
2022/04/12 11:34:27;;;;;;;10.13;6.82;;;30.20;43.80;;;;;;4902126;29;20037;-83
2022/04/12 11:36:56;;;;;;;15.32;7.03;;;29.40;44.30;;;;;;4900546;29;20013;-83
2022/04/12 11:39:28;;;;;;;13.85;7.43;;;30.00;44.00;;;;;;4902626;29;20027;-81
2022/04/12 11:42:04;;;;;;;10.27;6.82;;;30.30;43.80;;;;;;4900825;29;20033;-82
2022/04/12 11:44:31;;;;;;;16.05;7.28;;;30.40;42.90;;;;;;4902033;29;20271;-83
2022/04/12 11:47:02;;;;;;;15.93;7.15;;;30.10;43.00;;;;;;4900909;29;20029;-82
2022/04/12 11:49:39;;;;;;;13.05;8.02;;;29.80;43.40;;;;;;4901173;29;20040;-83
2022/04/12 11:52:09;;;;;;;14.05;7.88;;;30.10;43.60;;;;;;4900326;29;20058;-81
2022/04/12 11:54:37;;;;;;;11.88;7.55;;;30.00;43.30;;;;;;4902560;29;20072;-83
2022/04/12 11:57:12;;;;;;;14.23;7.28;;;30.10;43.10;;;;;;4892451;29;20041;-82
2022/04/12 11:59:59;;;;;;;15.20;7.63;;;29.80;43.30;;;;;;4894423;29;20036;-82
2022/04/12 12:02:30;;;;;;;13.32;7.07;;;30.00;42.90;;;;;;4900784;29;20033;-83
2022/04/12 12:04:57;;;;;;;13.07;7.45;;;30.30;42.80;;;;;;4904493;29;20104;-82
2022/04/12 12:07:25;;;;;;;13.63;7.22;;;30.30;42.60;;;;;;4903761;29;20017;-84
2022/04/12 12:09:59;;;;;;;13.98;6.93;;;30.10;42.50;;;;;;4904131;29;20033;-85
2022/04/12 12:12:35;;;;;;;14.68;6.68;;;30.20;42.70;;;;;;4876920;29;20059;-83
2022/04/12 12:15:26;;;;;;;11.82;7.65;;;30.40;42.20;;;;;;4894512;29;20417;-85
2022/04/12 12:18:00;;;;;;;11.23;7.47;;;30.40;42.20;;;;;;4898946;29;20482;-85
2022/04/12 12:20:30;;;;;;;14.50;7.20;;;30.40;42.20;;;;;;4891012;29;20393;-84
2022/04/12 12:22:59;;;;;;;12.77;6.88;;;31.10;41.90;;;;;;4893264;29;20025;-85
2022/04/12 12:25:55;;;;;;;11.32;6.53;;;32.20;41.30;;;;;;4890326;29;20033;-84
2022/04/12 12:28:23;;;;;;;16.52;6.97;;;32.00;40.90;;;;;;4896024;29;20541;-84
2022/04/12 12:30:59;;;;;;;12.45;6.72;;;31.70;40.70;;;;;;4892800;29;20021;-84
2022/04/12 12:33:41;;;;;;;11.60;7.15;;;31.10;40.50;;;;;;4893611;29;20033;-84
2022/04/12 12:36:21;;;;;;;22.23;7.55;;;31.00;40.70;;;;;;4885858;29;20070;-86
2022/04/12 12:38:47;;;;;;;12.52;7.25;;;30.80;40.30;;;;;;4894066;29;20462;-85
2022/04/12 12:41:27;;;;;;;11.55;7.25;;;30.70;40.70;;;;;;4903483;29;20013;-85
2022/04/12 12:43:58;;;;;;;9.18;6.20;;;30.50;40.70;;;;;;4910937;29;20021;-84
2022/04/12 12:46:28;;;;;;;13.93;6.85;;;30.80;40.80;;;;;;4906787;29;20091;-84
2022/04/12 12:49:07;;;;;;;13.45;7.13;;;31.40;40.50;;;;;;4904843;29;20013;-84
2022/04/12 12:51:33;;;;;;;12.27;7.60;;;31.20;40.50;;;;;;4916687;29;20024;-84
2022/04/12 12:54:02;;;;;;;12.43;7.00;;;31.40;40.50;;;;;;4912184;29;20013;-85
2022/04/12 12:56:33;;;;;;;11.05;6.68;;;31.80;40.20;;;;;;4912448;29;20068;-85